AQQ10 IFIS: Internet Flight Information System
logo dgac
Miércoles 10 de Agosto del 2022

Metar

Buscar por aerodromo o helipuerto
Ingrese nombre de aeródromo, localidad o designador OACI:


METAR del 10-08-2022 a las 17:00 UTC
Para mayor información visite www.meteochile.cl
METAR SCVD 101700Z 04004KT 7000 OVC003 06/06 Q1019
Viento: dirección 040 grados, velocidad 4 nudos
Visibilidad: 7000 metros
Nubes: Cubierto a 300 pies sobre el nivel del aeródromo
Temperatura: 6 °C
Rocío: 6 °C
Humedad_relativa: 100%
Presión: 1019 hPa
METAR del 10-08-2022 a las 17:00 UTC
Para mayor información visite www.meteochile.cl
METAR SCIP 101700Z 12008KT 090V150 9999 BKN040 19/09 Q1029 NOSIG
Viento: dirección 120 grados, velocidad 8 nudos
Viento con dirección variable entre 090 y 150 grados
Visibilidad: 10 km o más
Nubes: Nublado a 4000 pies sobre el nivel del aeródromo
Temperatura: 19 °C
Rocío: 9 °C
Humedad_relativa: 52%
Presión: 1029 hPa
No se esperan cambios significativos en las próximas 2 horas
METAR del 10-08-2022 a las 17:00 UTC
Para mayor información visite www.meteochile.cl
METAR SCRM 101700Z 36028KT 1200 BR OVC003 M02/M02 Q0995 NOSIG
Viento: dirección 360 grados, velocidad 28 nudos
Visibilidad: 1200 metros
Neblina
Nubes: Cubierto a 300 pies sobre el nivel del aeródromo
Temperatura: -2 °C
Rocío: -2 °C
Humedad_relativa: 100%
Presión: 995 hPa
No se esperan cambios significativos en las próximas 2 horas
METAR del 10-08-2022 a las 17:00 UTC
Para mayor información visite www.meteochile.cl
METAR SCTB 101700Z 24004KT 7000 NSC 19/00 Q1018
Viento: dirección 240 grados, velocidad 4 nudos
Visibilidad: 7000 metros
Sin nubes bajo los 5000 pies o bajo del MSA (Mínimo de Seguridad del Aeródromo)
Temperatura: 19 °C
Rocío: 0 °C
Humedad_relativa: 28%
Presión: 1018 hPa
METAR del 10-08-2022 a las 17:00 UTC
Para mayor información visite www.meteochile.cl
METAR SCVM 101700Z 28009KT 260V350 9000 BKN018 13/09 Q1019
Viento: dirección 280 grados, velocidad 9 nudos
Viento con dirección variable entre 260 y 350 grados
Visibilidad: 9000 metros
Nubes: Nublado a 1800 pies sobre el nivel del aeródromo
Temperatura: 13 °C
Rocío: 9 °C
Humedad_relativa: 77%
Presión: 1019 hPa
METAR del 10-08-2022 a las 17:00 UTC
Para mayor información visite www.meteochile.cl
METAR SCCY 101700Z 02003KT 9999 FEW026 OVC040 09/05 Q1011
Viento: dirección 020 grados, velocidad 3 nudos
Visibilidad: 10 km o más
Nubes: Escasa nubosidad a 2600 pies sobre el nivel del aeródromo
Nubes: Cubierto a 4000 pies sobre el nivel del aeródromo
Temperatura: 9 °C
Rocío: 5 °C
Humedad_relativa: 76%
Presión: 1011 hPa
METAR del 10-08-2022 a las 17:00 UTC
Para mayor información visite www.meteochile.cl
METAR SCPD 101700Z 16009KT CAVOK 19/02 Q1017
Viento: dirección 160 grados, velocidad 9 nudos
Visibilidad: 10 km o más,
    sin nubes bajo los 5.000 pies o bajo del MSA (Mínimo de Seguridad del Aeródromo),
    sin cumulonimbus, y sin fenómenos de tiempo significativo en el aeródromo o alrededores
Temperatura: 19 °C
Rocío: 2 °C
Humedad_relativa: 32%
Presión: 1017 hPa
METAR del 10-08-2022 a las 17:00 UTC
Para mayor información visite www.meteochile.cl
METAR SCFA 101700Z 19011KT 9999 FEW027 15/09 Q1016 NOSIG
Viento: dirección 190 grados, velocidad 11 nudos
Visibilidad: 10 km o más
Nubes: Escasa nubosidad a 2700 pies sobre el nivel del aeródromo
Temperatura: 15 °C
Rocío: 9 °C
Humedad_relativa: 67%
Presión: 1016 hPa
No se esperan cambios significativos en las próximas 2 horas
METAR del 10-08-2022 a las 17:00 UTC
Para mayor información visite www.meteochile.cl
METAR SCIR 101700Z 24012G22KT 9999 FEW023 SCT040 16/10 Q1021
Viento: dirección 240 grados, velocidad 12 nudos, con ráfagas de velocidad máxima de 22Nudos
Visibilidad: 10 km o más
Nubes: Escasa nubosidad a 2300 pies sobre el nivel del aeródromo
Nubes: Nubosidad parcial a 4000 pies sobre el nivel del aeródromo
Temperatura: 16 °C
Rocío: 10 °C
Humedad_relativa: 68%
Presión: 1021 hPa
METAR del 10-08-2022 a las 17:00 UTC
Para mayor información visite www.meteochile.cl
METAR SCCI 101700Z 29009KT CAVOK 08/03 Q1001 NOSIG
Viento: dirección 290 grados, velocidad 9 nudos
Visibilidad: 10 km o más,
    sin nubes bajo los 5.000 pies o bajo del MSA (Mínimo de Seguridad del Aeródromo),
    sin cumulonimbus, y sin fenómenos de tiempo significativo en el aeródromo o alrededores
Temperatura: 8 °C
Rocío: 3 °C
Humedad_relativa: 71%
Presión: 1001 hPa
No se esperan cambios significativos en las próximas 2 horas